Gillette, WY

6:30 AM MST on December 04, 2016 (GMT -0700)
McCann Heights, central Gillette | | Change Station
Active Advisory: Winter Weather Advisory

Elev 4590 ft 44.28 °N, 105.50 °W | Updated 1 minute ago

Clear
Clear
22.5 °F
Feels Like 22 °F
N
3.0
Wind Variable Wind from South

Today
High -- | Low -- °F
--% Chance of Precip.
Yesterday
High -- | Low -- °F
Precip. -- in
Pressure 29.95 in
Visibility 10.0 miles
Clouds Clear
Windchill 22 °F
Dew Point 12 °F
Humidity 65%
Rainfall 0.00 in
Snow Depth Not available.
7:21 AM 4:23 PM
Waxing Crescent, 22% visible
METAR KGCC 041253Z AUTO 21015KT 10SM CLR M03/M11 A2986 RMK AO2 SLP140 T10281106
Pressure 29.95 in
Visibility 10.0 miles
Clouds Clear
Windchill 22 °F
Dew Point 12 °F
Humidity 65%
Rainfall 0.00 in
Snow Depth Not available.
7:21 AM 4:23 PM
Waxing Crescent, 22% visible
METAR KGCC 041253Z AUTO 21015KT 10SM CLR M03/M11 A2986 RMK AO2 SLP140 T10281106

10-Day Weather Forecast

Almanac

Astronomy

Dec. 04, 2016 Rise Set
Actual Time
Civil Twilight
Nautical Twilight
Astronomical Twilight
Moon
Length of Visible Light
Length of Day
Tomorrow will be .
, % of the Moon is Illuminated

Today's Extremes

State Highs State Lows

Community

WunderPhotos

Upload Photos

1,955,593 photos uploaded!

WunderBlog® & News

Nearby

Air Quality

  Air Quality AQ Index Pollutant
Not available.

Snow Depth

Station Depth Elevation

Earthquake Activity

City Distance Mag. Time & Date
Minimum magnitude displayed is 2.5.

Coastal Water Temperatures

Place Temperature

Stations

Nearby Weather Stations

Station Location Temp. Windchill Dew Point Humidity Wind Precip. Elev Updated Type
                   

Watches & Warnings

Winter Weather Advisory
Issued: 3:03 AM MST Dec. 4, 2016 – National Weather Service

... Winter Weather Advisory in effect from midnight tonight to
5 PM MST Monday...

The National Weather Service in Rapid City has issued a Winter
Weather Advisory for snow and blowing snow... which is in effect
from midnight tonight to 5 PM MST Monday.

* Timing... late Sunday night through late Monday afternoon.

* Main impact... snow and blowing snow reducing visibilities.

* Other impacts... wind chill readings falling to near zero by late
Monday afternoon.

Precautionary/preparedness actions...

A Winter Weather Advisory means snow... freezing precipitation...
wind... and cold temperatures will create hazardous conditions.
Use caution when outdoors or traveling.